Time;durP1;ratioP1;P1;durP2;ratioP2;P2;SDS_P1;SDS_P2;PMS_P1;PMS_P2;Temp;Humidity;BMP_temperature;BMP_pressure;BME280_temperature;BME280_humidity;BME280_pressure;Samples;Min_cycle;Max_cycle;Signal;HPM_P1;HPM_P2
2021/06/07 00:01:47;;;;;;;42.00;22.20;;;19.30;97.20;;;;;;5071935;28;20047;-78
2021/06/07 00:04:14;;;;;;;38.88;21.13;;;19.30;97.20;;;;;;5073391;28;20091;-79
2021/06/07 00:06:40;;;;;;;38.22;21.17;;;19.30;97.20;;;;;;5097667;28;20040;-78
2021/06/07 00:09:08;;;;;;;37.00;21.45;;;19.30;97.30;;;;;;5090781;28;20354;-79
2021/06/07 00:11:35;;;;;;;37.83;21.75;;;19.30;97.10;;;;;;5092860;28;20037;-78
2021/06/07 00:14:02;;;;;;;36.67;21.10;;;19.30;97.10;;;;;;5073537;28;20090;-79
2021/06/07 00:16:29;;;;;;;36.30;21.98;;;19.30;97.00;;;;;;5064231;28;20041;-78
2021/06/07 00:18:55;;;;;;;39.35;22.27;;;19.20;97.00;;;;;;5063937;28;20115;-78
2021/06/07 00:21:25;;;;;;;41.33;21.73;;;19.30;97.00;;;;;;5064506;28;20107;-78
2021/06/07 00:23:53;;;;;;;41.95;22.33;;;19.30;97.10;;;;;;5088676;28;20039;-79
2021/06/07 00:26:19;;;;;;;37.60;22.83;;;19.30;97.00;;;;;;5069129;28;20047;-79
2021/06/07 00:28:45;;;;;;;40.17;22.40;;;19.30;97.00;;;;;;5071528;28;20047;-78
2021/06/07 00:31:11;;;;;;;39.97;21.88;;;19.30;97.00;;;;;;5066503;28;20040;-79
2021/06/07 00:33:37;;;;;;;43.00;22.05;;;19.20;96.90;;;;;;5073983;28;20039;-78
2021/06/07 00:36:05;;;;;;;39.58;23.25;;;19.30;97.30;;;;;;5107015;28;20040;-78
2021/06/07 00:38:31;;;;;;;40.35;21.98;;;19.30;96.90;;;;;;5075257;28;20414;-81
2021/06/07 00:41:00;;;;;;;33.85;20.98;;;19.30;96.70;;;;;;5066605;28;20072;-78
2021/06/07 00:43:25;;;;;;;47.63;21.95;;;19.30;96.80;;;;;;5062392;28;20288;-80
2021/06/07 00:45:51;;;;;;;38.65;20.60;;;19.30;96.80;;;;;;5066118;28;20089;-79
2021/06/07 00:48:17;;;;;;;41.40;22.83;;;19.30;96.90;;;;;;5067915;28;20103;-80
2021/06/07 00:50:47;;;;;;;39.25;21.92;;;19.20;96.90;;;;;;5065056;28;20051;-78
2021/06/07 00:53:15;;;;;;;41.53;22.58;;;19.20;96.90;;;;;;5102429;28;20045;-81
2021/06/07 00:55:49;;;;;;;40.92;22.98;;;19.20;96.90;;;;;;5061369;28;20041;-79
2021/06/07 00:58:17;;;;;;;38.25;21.85;;;19.20;96.90;;;;;;5067286;28;20033;-79
2021/06/07 01:00:43;;;;;;;42.15;22.20;;;19.20;96.90;;;;;;5065592;28;20036;-81
2021/06/07 01:03:10;;;;;;;38.88;21.85;;;19.20;97.00;;;;;;5058111;28;20398;-79
2021/06/07 01:05:37;;;;;;;38.55;22.88;;;19.20;97.00;;;;;;5065811;28;20047;-79
2021/06/07 01:08:04;;;;;;;38.33;22.13;;;19.20;97.00;;;;;;5063135;28;20101;-80
2021/06/07 01:10:31;;;;;;;40.53;22.55;;;19.20;96.90;;;;;;5066349;28;20277;-79
2021/06/07 01:12:59;;;;;;;37.95;21.58;;;19.20;96.80;;;;;;5074512;28;20071;-80
2021/06/07 01:15:25;;;;;;;36.55;22.50;;;19.20;96.80;;;;;;5068120;28;20037;-80
2021/06/07 01:17:51;;;;;;;40.40;22.63;;;19.20;96.90;;;;;;5076777;28;20048;-78
2021/06/07 01:20:19;;;;;;;36.20;21.92;;;19.20;96.90;;;;;;5075079;28;20331;-78
2021/06/07 01:22:46;;;;;;;41.42;23.92;;;19.20;96.90;;;;;;5073294;28;20368;-78
2021/06/07 01:25:16;;;;;;;40.97;23.30;;;19.10;97.10;;;;;;5068934;28;20127;-77
2021/06/07 01:27:42;;;;;;;40.03;22.45;;;19.10;97.00;;;;;;5057181;28;20739;-77
2021/06/07 01:30:11;;;;;;;42.92;22.63;;;19.10;97.10;;;;;;5062576;28;20052;-77
2021/06/07 01:32:37;;;;;;;36.75;22.48;;;19.10;97.20;;;;;;5068102;28;20115;-77
2021/06/07 01:35:06;;;;;;;39.38;22.00;;;19.10;97.40;;;;;;5068312;28;20045;-78
2021/06/07 01:37:32;;;;;;;37.47;22.92;;;19.10;97.10;;;;;;5068391;28;20040;-78
2021/06/07 01:39:58;;;;;;;38.83;21.83;;;19.10;97.10;;;;;;5073610;28;20387;-78
2021/06/07 01:42:24;;;;;;;34.92;21.30;;;19.10;97.10;;;;;;5074081;28;20265;-78
2021/06/07 01:44:50;;;;;;;37.55;22.98;;;19.10;97.10;;;;;;5069622;28;20062;-77
2021/06/07 01:47:15;;;;;;;38.40;22.58;;;19.10;97.10;;;;;;5073338;28;20045;-78
2021/06/07 01:49:43;;;;;;;37.78;21.67;;;19.00;97.10;;;;;;5068328;28;20040;-77
2021/06/07 01:52:09;;;;;;;35.83;22.08;;;19.00;97.00;;;;;;5069399;28;20044;-78
2021/06/07 01:54:35;;;;;;;38.88;21.95;;;19.00;97.10;;;;;;5058030;28;20425;-78
2021/06/07 01:57:00;;;;;;;41.13;22.92;;;19.00;97.20;;;;;;5091782;28;20044;-78
2021/06/07 01:59:26;;;;;;;38.22;22.90;;;19.00;97.20;;;;;;5072157;28;20295;-78
2021/06/07 02:01:54;;;;;;;36.97;22.55;;;18.90;97.40;;;;;;5060523;28;20040;-78
2021/06/07 02:04:20;;;;;;;41.13;23.27;;;18.90;97.50;;;;;;5066165;28;20043;-78
2021/06/07 02:06:45;;;;;;;37.03;22.40;;;18.90;97.40;;;;;;5069594;28;20598;-78
2021/06/07 02:09:11;;;;;;;37.40;22.38;;;18.90;97.40;;;;;;5067586;28;20048;-77
2021/06/07 02:11:36;;;;;;;39.90;22.42;;;18.90;97.50;;;;;;5062917;28;20129;-78
2021/06/07 02:14:04;;;;;;;38.22;22.35;;;18.90;97.50;;;;;;5061115;28;20040;-78
2021/06/07 02:16:34;;;;;;;38.33;22.42;;;18.80;97.50;;;;;;5060327;28;20120;-78
2021/06/07 02:19:01;;;;;;;36.83;22.40;;;18.80;97.50;;;;;;5066721;28;20291;-78
2021/06/07 02:21:27;;;;;;;41.58;23.20;;;18.80;97.60;;;;;;5067222;28;20111;-78
2021/06/07 02:23:54;;;;;;;38.83;24.20;;;18.80;97.60;;;;;;5070702;28;20335;-78
2021/06/07 02:26:21;;;;;;;39.35;22.60;;;18.80;97.60;;;;;;5067410;28;20047;-78
2021/06/07 02:29:05;;;;;;;39.42;23.58;;;18.80;97.70;;;;;;5060025;28;20173;-78
2021/06/07 02:31:31;;;;;;;35.35;21.80;;;18.80;97.70;;;;;;5057507;28;20041;-78
2021/06/07 02:33:58;;;;;;;38.38;21.63;;;18.70;97.70;;;;;;5064165;28;20289;-78
2021/06/07 02:36:29;;;;;;;39.13;21.83;;;18.70;97.70;;;;;;5093044;28;20131;-79
2021/06/07 02:38:55;;;;;;;44.80;23.77;;;18.70;97.80;;;;;;5056154;28;20036;-79
2021/06/07 02:41:21;;;;;;;40.45;23.77;;;18.70;97.80;;;;;;5099201;28;20399;-79
2021/06/07 02:43:48;;;;;;;42.22;22.75;;;18.70;97.70;;;;;;5067556;28;20037;-78
2021/06/07 02:46:13;;;;;;;39.47;23.95;;;18.70;97.70;;;;;;5060571;28;20366;-78
2021/06/07 02:48:39;;;;;;;42.38;23.42;;;18.70;97.80;;;;;;5073082;28;20040;-79
2021/06/07 02:51:05;;;;;;;46.40;26.00;;;18.70;97.80;;;;;;5098799;28;20087;-78
2021/06/07 02:53:31;;;;;;;40.17;23.80;;;18.70;97.90;;;;;;5059535;28;20302;-78
2021/06/07 02:55:57;;;;;;;43.75;25.50;;;18.70;97.90;;;;;;5063224;28;20153;-78
2021/06/07 02:58:23;;;;;;;41.78;25.48;;;18.70;97.90;;;;;;5073323;28;20119;-79
2021/06/07 03:00:56;;;;;;;45.83;25.58;;;18.60;98.00;;;;;;5063054;28;20409;-79
2021/06/07 03:03:21;;;;;;;;;;;18.60;98.10;;;;;;5060879;28;20116;-78
2021/06/07 03:05:48;;;;;;;44.42;23.80;;;18.60;98.10;;;;;;5067215;28;20007;-77
2021/06/07 03:08:17;;;;;;;48.20;25.45;;;18.60;98.40;;;;;;5056288;28;20036;-78
2021/06/07 03:10:47;;;;;;;47.72;25.65;;;18.60;98.10;;;;;;5072944;28;20408;-78
2021/06/07 03:13:13;;;;;;;43.22;25.85;;;18.60;98.20;;;;;;5068106;28;20049;-78
2021/06/07 03:15:38;;;;;;;49.53;25.60;;;18.60;98.30;;;;;;5055758;28;20067;-78
2021/06/07 03:18:05;;;;;;;47.13;25.88;;;18.60;98.30;;;;;;5058083;28;20079;-78
2021/06/07 03:20:32;;;;;;;48.78;26.58;;;18.60;98.20;;;;;;5104617;28;20139;-78
2021/06/07 03:23:01;;;;;;;42.83;26.08;;;18.60;98.20;;;;;;5069059;28;20166;-78
2021/06/07 03:25:28;;;;;;;52.60;26.25;;;18.60;98.20;;;;;;5070671;28;20048;-79
2021/06/07 03:27:55;;;;;;;43.67;25.05;;;18.70;98.10;;;;;;5068856;28;20057;-79
2021/06/07 03:30:22;;;;;;;45.92;26.50;;;18.70;98.30;;;;;;5096949;28;20400;-79
2021/06/07 03:32:47;;;;;;;43.70;25.08;;;18.70;98.30;;;;;;5063803;28;20040;-79
2021/06/07 03:35:15;;;;;;;45.25;25.80;;;18.70;98.20;;;;;;5057361;28;20272;-79
2021/06/07 03:37:41;;;;;;;41.42;25.00;;;18.70;98.10;;;;;;5071725;28;20040;-79
2021/06/07 03:40:13;;;;;;;46.35;27.00;;;18.70;98.10;;;;;;5074681;28;20028;-79
2021/06/07 03:42:38;;;;;;;46.35;25.13;;;18.70;98.00;;;;;;5094996;28;20339;-79
2021/06/07 03:45:06;;;;;;;46.92;27.38;;;18.70;98.10;;;;;;5061679;28;20086;-79
2021/06/07 03:47:32;;;;;;;48.03;25.70;;;18.80;98.00;;;;;;5059023;28;20459;-79
2021/06/07 03:49:57;;;;;;;50.33;27.23;;;18.80;98.10;;;;;;5056156;28;20037;-79
2021/06/07 03:52:22;;;;;;;42.47;25.77;;;18.80;98.00;;;;;;5067583;28;20451;-79
2021/06/07 03:54:48;;;;;;;50.88;27.42;;;18.80;98.00;;;;;;5072089;28;20044;-78
2021/06/07 03:57:13;;;;;;;45.42;26.30;;;18.80;97.80;;;;;;5055592;28;20045;-78
2021/06/07 03:59:39;;;;;;;46.08;26.58;;;18.80;97.90;;;;;;5067592;28;20041;-79
2021/06/07 04:02:08;;;;;;;42.60;24.48;;;18.80;97.90;;;;;;5073440;28;20078;-79
2021/06/07 04:04:34;;;;;;;45.05;24.75;;;18.80;97.80;;;;;;5065509;28;20399;-79
2021/06/07 04:07:00;;;;;;;45.35;24.75;;;18.90;97.80;;;;;;5065542;28;20048;-79
2021/06/07 04:09:27;;;;;;;44.13;24.63;;;18.90;97.80;;;;;;5076444;28;20265;-79
2021/06/07 04:11:52;;;;;;;43.90;26.33;;;18.90;97.70;;;;;;5068507;28;20045;-79
2021/06/07 04:14:18;;;;;;;48.20;27.17;;;19.00;97.50;;;;;;5063012;28;20036;-78
2021/06/07 04:16:43;;;;;;;41.38;24.75;;;19.00;97.70;;;;;;5064056;28;20098;-79
2021/06/07 04:19:09;;;;;;;41.78;25.10;;;19.00;97.70;;;;;;5073448;28;20112;-78
2021/06/07 04:21:36;;;;;;;39.20;24.08;;;19.00;97.30;;;;;;5077543;28;20084;-79
2021/06/07 04:24:01;;;;;;;40.33;24.80;;;19.10;97.20;;;;;;5097626;28;20041;-78
2021/06/07 04:26:27;;;;;;;42.33;26.25;;;19.10;97.20;;;;;;5067768;28;20045;-79
2021/06/07 04:28:52;;;;;;;40.35;23.63;;;19.00;97.10;;;;;;5063977;28;20296;-79
2021/06/07 04:31:18;;;;;;;37.63;23.52;;;19.00;97.20;;;;;;5064126;28;20072;-78
2021/06/07 04:33:43;;;;;;;42.28;24.95;;;19.00;97.30;;;;;;5070196;28;20671;-79
2021/06/07 04:36:09;;;;;;;37.25;23.63;;;19.00;97.10;;;;;;5068015;28;20048;-78
2021/06/07 04:38:34;;;;;;;40.38;25.02;;;19.00;96.90;;;;;;5080778;28;20047;-79
2021/06/07 04:41:00;;;;;;;42.38;25.42;;;19.10;97.00;;;;;;5068668;28;20032;-77
2021/06/07 04:43:25;;;;;;;36.13;24.02;;;19.00;96.80;;;;;;5071292;28;20043;-77
2021/06/07 04:45:51;;;;;;;37.75;24.85;;;19.00;97.00;;;;;;5068997;28;20411;-77
2021/06/07 04:48:16;;;;;;;39.28;23.65;;;19.00;97.10;;;;;;5062540;28;20048;-77
2021/06/07 04:50:44;;;;;;;36.42;23.45;;;19.00;96.90;;;;;;5072860;28;20033;-77
2021/06/07 04:53:10;;;;;;;38.97;24.35;;;19.10;96.70;;;;;;5060885;28;20048;-79
2021/06/07 04:55:39;;;;;;;37.20;23.67;;;19.10;96.70;;;;;;5068610;28;20052;-78
2021/06/07 04:58:09;;;;;;;43.50;25.30;;;19.10;96.80;;;;;;5059743;28;20075;-80
2021/06/07 05:00:36;;;;;;;37.05;24.23;;;19.10;96.60;;;;;;5069655;28;20040;-80
2021/06/07 05:03:02;;;;;;;43.53;23.70;;;19.10;96.70;;;;;;5061435;28;20463;-78
2021/06/07 05:05:28;;;;;;;42.58;25.77;;;19.10;96.70;;;;;;5059296;28;20052;-77
2021/06/07 05:07:54;;;;;;;42.22;25.27;;;19.10;96.70;;;;;;5060312;28;20430;-77
2021/06/07 05:10:20;;;;;;;39.35;23.65;;;19.10;96.70;;;;;;5067251;28;20043;-80
2021/06/07 05:12:45;;;;;;;38.60;24.83;;;19.20;96.40;;;;;;5066212;28;20064;-79
2021/06/07 05:15:12;;;;;;;39.13;23.67;;;19.30;96.40;;;;;;5057372;28;20090;-79
2021/06/07 05:17:38;;;;;;;35.67;23.67;;;19.20;96.40;;;;;;5053694;28;20388;-79
2021/06/07 05:20:05;;;;;;;38.17;24.40;;;19.30;96.20;;;;;;5056547;28;20119;-79
2021/06/07 05:22:31;;;;;;;34.50;24.30;;;19.30;96.30;;;;;;5063963;28;20090;-79
2021/06/07 05:24:56;;;;;;;35.75;24.15;;;19.40;96.30;;;;;;5070010;28;20033;-79
2021/06/07 05:27:22;;;;;;;39.97;22.95;;;19.40;96.30;;;;;;5068150;28;20371;-79
2021/06/07 05:29:47;;;;;;;40.35;24.42;;;19.40;96.40;;;;;;5064621;28;20127;-79
2021/06/07 05:32:13;;;;;;;37.17;23.38;;;19.40;96.30;;;;;;5055794;28;20036;-79
2021/06/07 05:34:38;;;;;;;39.63;23.70;;;19.50;96.00;;;;;;5070110;28;20098;-80
2021/06/07 05:37:04;;;;;;;42.22;23.75;;;19.50;96.00;;;;;;5055984;28;20037;-79
2021/06/07 05:39:30;;;;;;;39.60;25.27;;;19.50;95.80;;;;;;5061719;28;20260;-79
2021/06/07 05:41:55;;;;;;;36.83;24.52;;;19.50;95.80;;;;;;5054991;28;20132;-80
2021/06/07 05:44:21;;;;;;;40.13;24.60;;;19.50;95.80;;;;;;5054624;28;20051;-80
2021/06/07 05:46:47;;;;;;;41.38;24.60;;;19.40;95.70;;;;;;5059664;28;20678;-79
2021/06/07 05:49:13;;;;;;;40.65;24.48;;;19.40;96.00;;;;;;5056338;28;20061;-79
2021/06/07 05:51:39;;;;;;;35.00;22.73;;;19.40;95.70;;;;;;5054737;28;20037;-79
2021/06/07 05:54:04;;;;;;;37.85;23.95;;;19.50;95.30;;;;;;5062810;28;20029;-79
2021/06/07 05:56:30;;;;;;;34.47;22.80;;;19.50;95.40;;;;;;5063400;28;20028;-80
2021/06/07 05:58:58;;;;;;;34.95;22.33;;;19.50;95.20;;;;;;5070241;28;20454;-77
2021/06/07 06:01:24;;;;;;;32.60;20.98;;;19.50;95.10;;;;;;5071867;28;20048;-80
2021/06/07 06:03:52;;;;;;;36.40;23.50;;;19.60;95.00;;;;;;5073784;28;20037;-79
2021/06/07 06:06:17;;;;;;;41.00;22.92;;;19.60;94.60;;;;;;5074154;28;20070;-79
2021/06/07 06:08:43;;;;;;;31.83;22.60;;;19.60;94.50;;;;;;5073776;28;20056;-78
2021/06/07 06:11:09;;;;;;;32.55;21.38;;;19.60;94.60;;;;;;5073998;28;20059;-80
2021/06/07 06:13:35;;;;;;;33.92;23.13;;;19.70;94.50;;;;;;5074315;28;20051;-79
2021/06/07 06:16:00;;;;;;;31.42;21.90;;;19.70;94.40;;;;;;5106508;28;20040;-78
2021/06/07 06:18:26;;;;;;;34.38;21.67;;;19.70;94.70;;;;;;5074025;28;20045;-78
2021/06/07 06:20:51;;;;;;;35.05;23.92;;;19.70;94.60;;;;;;5086315;28;20059;-79
2021/06/07 06:23:17;;;;;;;36.33;23.10;;;19.70;94.80;;;;;;5086390;28;20036;-78
2021/06/07 06:25:43;;;;;;;33.95;21.40;;;19.70;94.40;;;;;;5070928;28;20036;-78
2021/06/07 06:28:08;;;;;;;34.58;21.10;;;19.70;94.50;;;;;;5060466;28;20051;-78
2021/06/07 06:30:34;;;;;;;33.17;22.13;;;19.70;94.60;;;;;;5056307;28;20085;-81
2021/06/07 06:33:00;;;;;;;33.55;22.42;;;19.80;94.70;;;;;;5068164;28;20303;-77
2021/06/07 06:35:27;;;;;;;35.38;22.27;;;19.90;94.50;;;;;;5056494;28;20068;-77
2021/06/07 06:37:53;;;;;;;29.98;21.23;;;20.00;94.60;;;;;;5071307;28;20040;-78
2021/06/07 06:40:24;;;;;;;32.03;22.38;;;20.00;94.20;;;;;;5059927;28;20471;-79
2021/06/07 06:42:52;;;;;;;29.63;20.25;;;20.00;93.70;;;;;;5061454;28;20079;-79
2021/06/07 06:45:18;;;;;;;34.03;21.25;;;20.00;93.90;;;;;;5067244;28;20044;-78
2021/06/07 06:47:44;;;;;;;34.38;21.23;;;20.10;93.60;;;;;;5061283;28;20123;-78
2021/06/07 06:50:11;;;;;;;32.95;22.42;;;20.10;93.80;;;;;;5073259;28;20696;-78
2021/06/07 06:52:37;;;;;;;30.75;21.27;;;20.10;93.70;;;;;;5056603;28;20051;-78
2021/06/07 06:55:05;;;;;;;33.38;20.25;;;20.20;93.70;;;;;;5053381;28;20040;-78
2021/06/07 06:57:30;;;;;;;29.27;20.60;;;20.20;93.70;;;;;;5055954;28;20183;-78
2021/06/07 06:59:56;;;;;;;35.92;21.02;;;20.20;93.70;;;;;;5069169;28;20116;-79
2021/06/07 07:02:21;;;;;;;30.45;21.15;;;20.20;93.60;;;;;;5058489;28;20041;-79
2021/06/07 07:04:47;;;;;;;27.13;18.95;;;20.30;93.70;;;;;;5060956;28;20063;-77
2021/06/07 07:07:12;;;;;;;29.02;20.15;;;20.40;93.50;;;;;;5068381;28;20048;-78
2021/06/07 07:09:42;;;;;;;27.35;18.13;;;20.40;92.60;;;;;;5093821;28;20165;-78
2021/06/07 07:12:08;;;;;;;25.63;18.70;;;20.40;92.50;;;;;;5073639;28;20502;-77
2021/06/07 07:14:33;;;;;;;24.27;18.90;;;20.40;91.90;;;;;;5073010;28;20051;-78
2021/06/07 07:16:59;;;;;;;24.65;18.38;;;20.50;92.00;;;;;;5073597;28;20044;-79
2021/06/07 07:19:24;;;;;;;29.30;18.20;;;20.60;91.30;;;;;;5073373;28;20048;-77
2021/06/07 07:21:50;;;;;;;25.02;17.02;;;20.60;91.70;;;;;;5072178;28;20040;-79
2021/06/07 07:24:15;;;;;;;22.98;17.17;;;20.70;91.20;;;;;;5073888;28;20037;-79
2021/06/07 07:26:42;;;;;;;18.85;15.43;;;20.70;90.90;;;;;;5106975;28;20989;-78
2021/06/07 07:29:07;;;;;;;27.27;18.20;;;20.80;90.30;;;;;;5072934;28;20390;-78
2021/06/07 07:31:33;;;;;;;20.10;14.25;;;20.90;90.60;;;;;;5062185;28;20028;-77
2021/06/07 07:33:58;;;;;;;22.63;15.60;;;20.90;90.30;;;;;;5063678;28;20452;-77
2021/06/07 07:36:24;;;;;;;23.48;18.00;;;21.10;90.60;;;;;;5067515;28;20042;-76
2021/06/07 07:38:49;;;;;;;21.02;15.18;;;21.20;90.10;;;;;;5076420;28;20032;-77
2021/06/07 07:41:15;;;;;;;32.97;17.55;;;21.20;89.10;;;;;;5075560;28;20040;-76
2021/06/07 07:43:40;;;;;;;15.50;12.98;;;21.30;89.20;;;;;;5064585;28;20040;-75
2021/06/07 07:46:06;;;;;;;20.45;15.05;;;21.40;88.00;;;;;;5070068;28;20032;-77
2021/06/07 07:48:32;;;;;;;25.33;15.75;;;21.40;87.60;;;;;;5076415;28;20051;-77
2021/06/07 07:50:57;;;;;;;21.65;16.35;;;21.50;88.60;;;;;;5074111;28;20040;-77
2021/06/07 07:53:24;;;;;;;21.75;16.60;;;21.50;90.50;;;;;;5067182;28;20124;-78
2021/06/07 07:55:51;;;;;;;20.92;15.93;;;21.70;89.60;;;;;;5055953;28;20033;-77
2021/06/07 07:58:16;;;;;;;23.77;15.93;;;21.80;87.60;;;;;;5067962;28;20044;-78
2021/06/07 08:00:42;;;;;;;23.40;15.10;;;22.00;89.20;;;;;;5076073;28;20380;-78
2021/06/07 08:03:08;;;;;;;21.45;15.50;;;22.30;86.50;;;;;;5075309;28;20037;-78
2021/06/07 08:05:35;;;;;;;21.90;14.75;;;22.50;83.20;;;;;;5075244;28;20063;-76
2021/06/07 08:08:01;;;;;;;23.23;16.67;;;22.50;85.30;;;;;;5104910;28;20044;-78
2021/06/07 08:10:27;;;;;;;18.75;15.15;;;22.50;84.50;;;;;;5055169;28;20075;-77
2021/06/07 08:12:53;;;;;;;19.02;14.30;;;22.60;84.20;;;;;;5056357;28;20044;-78
2021/06/07 08:15:18;;;;;;;20.42;15.07;;;22.60;85.00;;;;;;5057318;28;20044;-77
2021/06/07 08:17:44;;;;;;;17.08;14.23;;;22.80;85.70;;;;;;5055694;28;20051;-78
2021/06/07 08:20:15;;;;;;;18.73;13.95;;;23.00;83.60;;;;;;5093172;28;20052;-78
2021/06/07 08:22:42;;;;;;;19.10;13.80;;;23.20;84.40;;;;;;5075315;28;20063;-78
2021/06/07 08:25:09;;;;;;;17.15;13.18;;;23.30;83.50;;;;;;5074915;28;20045;-79
2021/06/07 08:27:34;;;;;;;15.77;13.20;;;23.40;82.50;;;;;;5074520;28;20044;-79
2021/06/07 08:30:00;;;;;;;18.60;14.00;;;23.50;83.30;;;;;;5067861;28;20361;-79
2021/06/07 08:32:25;;;;;;;18.50;14.30;;;23.50;82.30;;;;;;5063623;28;20040;-79
2021/06/07 08:34:51;;;;;;;18.63;13.27;;;23.40;82.00;;;;;;5064535;28;20045;-79
2021/06/07 08:37:16;;;;;;;20.65;14.40;;;23.40;83.20;;;;;;5059215;28;20111;-79
2021/06/07 08:39:42;;;;;;;13.98;11.25;;;23.40;80.90;;;;;;5066000;28;20442;-79
2021/06/07 08:42:10;;;;;;;18.30;12.48;;;23.40;82.70;;;;;;5055286;28;20582;-78
2021/06/07 08:44:37;;;;;;;21.02;14.50;;;23.50;81.20;;;;;;5063422;28;20048;-78
2021/06/07 08:47:03;;;;;;;18.00;14.48;;;23.60;82.80;;;;;;5074282;28;20044;-78
2021/06/07 08:49:29;;;;;;;18.92;13.40;;;23.70;82.60;;;;;;5075233;28;20470;-79
2021/06/07 08:51:54;;;;;;;20.13;13.85;;;23.80;83.00;;;;;;5074033;28;20111;-77
2021/06/07 08:54:20;;;;;;;20.75;13.70;;;23.90;83.50;;;;;;5070354;28;20037;-76
2021/06/07 08:56:46;;;;;;;17.77;12.57;;;24.00;82.10;;;;;;5067541;28;20621;-77
2021/06/07 08:59:12;;;;;;;19.38;13.48;;;24.10;81.70;;;;;;5071572;28;20301;-77
2021/06/07 09:01:38;;;;;;;16.13;11.60;;;24.10;79.20;;;;;;5054789;28;20420;-77
2021/06/07 09:04:16;;;;;;;18.77;13.07;;;24.10;79.30;;;;;;5060086;28;20033;-77
2021/06/07 09:06:48;;;;;;;17.83;13.15;;;24.10;80.10;;;;;;5073686;28;20673;-77
2021/06/07 09:09:16;;;;;;;16.52;13.20;;;24.10;79.40;;;;;;5074514;28;20044;-78
2021/06/07 09:11:45;;;;;;;17.75;12.77;;;24.10;81.00;;;;;;5073488;28;20036;-77
2021/06/07 09:14:22;;;;;;;17.15;12.30;;;24.00;80.70;;;;;;5074295;28;20037;-78
2021/06/07 09:16:48;;;;;;;17.60;13.65;;;24.10;80.10;;;;;;5098964;27;20040;-77
2021/06/07 09:19:19;;;;;;;20.27;13.63;;;24.10;80.00;;;;;;5063547;28;20044;-77
2021/06/07 09:21:45;;;;;;;16.15;12.40;;;24.10;79.60;;;;;;5056731;28;20029;-77
2021/06/07 09:24:10;;;;;;;17.02;13.05;;;24.10;80.80;;;;;;5071043;28;20034;-77
2021/06/07 09:26:38;;;;;;;18.38;12.75;;;24.10;80.50;;;;;;5073814;28;20591;-77
2021/06/07 09:29:23;;;;;;;16.42;12.55;;;24.10;80.20;;;;;;5073344;28;20036;-77
2021/06/07 09:31:54;;;;;;;15.95;12.45;;;24.20;80.00;;;;;;5073196;28;20048;-77
2021/06/07 09:34:25;;;;;;;20.60;11.95;;;24.10;79.50;;;;;;5067863;28;20078;-78
2021/06/07 09:36:50;;;;;;;13.43;11.57;;;24.20;81.30;;;;;;5059096;28;20127;-78
2021/06/07 09:39:16;;;;;;;16.00;10.98;;;24.30;80.60;;;;;;5073088;28;20474;-79
2021/06/07 09:41:50;;;;;;;18.20;10.65;;;24.50;80.80;;;;;;5069522;28;20037;-78
2021/06/07 09:44:22;;;;;;;15.98;11.15;;;24.80;79.40;;;;;;5058954;28;20032;-78
2021/06/07 09:46:48;;;;;;;14.98;11.43;;;25.00;77.70;;;;;;5062001;28;20100;-76
2021/06/07 09:49:16;;;;;;;17.13;11.25;;;25.30;79.50;;;;;;5087109;28;20040;-76
2021/06/07 09:51:58;;;;;;;18.83;11.63;;;25.50;76.40;;;;;;5058643;28;20036;-76
2021/06/07 09:54:25;;;;;;;16.10;10.57;;;25.60;78.20;;;;;;5062079;28;20403;-79
2021/06/07 09:56:58;;;;;;;15.20;11.95;;;25.70;76.90;;;;;;5074693;28;20036;-79
2021/06/07 09:59:29;;;;;;;13.52;11.05;;;25.90;77.30;;;;;;5053209;28;20047;-79
2021/06/07 10:01:57;;;;;;;14.60;11.65;;;26.00;73.00;;;;;;5093574;28;20470;-79
2021/06/07 10:04:43;;;;;;;12.80;11.18;;;26.10;72.90;;;;;;5073680;28;20074;-78
2021/06/07 10:07:08;;;;;;;13.35;11.07;;;26.10;73.40;;;;;;5073106;28;20040;-79
2021/06/07 10:09:34;;;;;;;16.05;11.48;;;26.10;72.40;;;;;;5074152;28;20047;-79
2021/06/07 10:11:59;;;;;;;13.73;10.40;;;26.10;73.20;;;;;;5073236;28;20131;-79
2021/06/07 10:14:25;;;;;;;13.55;10.23;;;26.20;72.10;;;;;;5071807;28;20044;-79
2021/06/07 10:17:01;;;;;;;13.07;9.70;;;26.10;72.10;;;;;;5071733;28;20395;-79
2021/06/07 10:19:41;;;;;;;14.73;10.90;;;26.00;71.80;;;;;;5072750;28;20068;-78
2021/06/07 10:22:07;;;;;;;13.77;9.80;;;26.00;72.60;;;;;;5074223;28;20119;-77
2021/06/07 10:24:33;;;;;;;14.05;9.48;;;25.90;72.70;;;;;;5074026;28;20036;-77
2021/06/07 10:26:59;;;;;;;10.00;8.52;;;26.00;76.40;;;;;;5078970;28;20033;-76
2021/06/07 10:29:43;;;;;;;13.05;9.60;;;26.10;74.30;;;;;;5054682;28;20032;-76
2021/06/07 10:32:12;;;;;;;12.18;9.27;;;26.30;74.50;;;;;;5064655;28;20101;-75
2021/06/07 10:34:50;;;;;;;15.68;9.60;;;26.40;71.10;;;;;;5072909;28;20036;-77
2021/06/07 10:37:16;;;;;;;12.73;10.25;;;26.40;69.80;;;;;;5059071;28;20118;-78
2021/06/07 10:39:42;;;;;;;12.68;8.82;;;26.30;70.80;;;;;;5061404;28;20085;-77
2021/06/07 10:42:07;;;;;;;12.80;10.80;;;26.10;74.10;;;;;;5070271;28;20041;-76
2021/06/07 10:44:38;;;;;;;9.85;8.10;;;26.00;70.60;;;;;;5061212;28;20295;-76
2021/06/07 10:47:08;;;;;;;10.75;8.95;;;26.00;70.30;;;;;;5070151;28;20303;-79
2021/06/07 10:49:40;;;;;;;10.35;8.38;;;26.00;71.70;;;;;;5067953;28;20037;-80
2021/06/07 10:52:10;;;;;;;11.00;8.83;;;26.20;73.50;;;;;;5053954;28;20037;-79
2021/06/07 10:54:38;;;;;;;15.00;9.50;;;26.30;71.40;;;;;;5062934;28;20275;-78
2021/06/07 10:57:22;;;;;;;11.60;8.57;;;26.50;70.30;;;;;;5070124;28;20045;-76
2021/06/07 10:59:49;;;;;;;11.73;8.52;;;26.70;68.40;;;;;;5062694;28;20041;-79
2021/06/07 11:02:21;;;;;;;11.32;8.80;;;26.70;70.20;;;;;;5085811;28;20040;-79
2021/06/07 11:05:07;;;;;;;12.80;8.95;;;26.90;70.00;;;;;;5106041;28;20024;-77
2021/06/07 11:07:34;;;;;;;10.77;8.57;;;27.00;70.40;;;;;;5095829;28;20404;-77
2021/06/07 11:10:22;;;;;;;12.45;9.73;;;27.10;71.20;;;;;;5068137;28;20045;-77
2021/06/07 11:12:53;;;;;;;9.15;7.93;;;27.20;71.30;;;;;;5076786;28;20051;-78
2021/06/07 11:15:25;;;;;;;10.18;8.50;;;27.30;70.00;;;;;;5077061;28;20032;-78
2021/06/07 11:17:52;;;;;;;9.30;8.25;;;27.20;70.90;;;;;;5110220;28;20181;-78
2021/06/07 11:20:31;;;;;;;11.05;8.88;;;27.20;70.00;;;;;;5110290;28;20621;-78
2021/06/07 11:23:14;;;;;;;14.90;9.32;;;27.20;69.50;;;;;;5077231;28;20033;-78
2021/06/07 11:25:52;;;;;;;11.07;8.70;;;27.10;69.90;;;;;;5076315;28;20039;-78
2021/06/07 11:28:31;;;;;;;10.32;8.07;;;27.10;70.40;;;;;;5077357;28;20072;-78
2021/06/07 11:30:58;;;;;;;9.77;8.25;;;27.20;69.60;;;;;;5071546;28;20037;-78
2021/06/07 11:33:24;;;;;;;14.63;8.25;;;27.30;71.40;;;;;;5101174;28;20040;-78
2021/06/07 11:35:51;;;;;;;10.80;7.30;;;27.50;69.10;;;;;;5090099;28;20036;-78
2021/06/07 11:38:33;;;;;;;9.93;7.57;;;27.80;70.30;;;;;;5071521;28;20068;-79
2021/06/07 11:41:04;;;;;;;11.20;8.27;;;28.00;67.70;;;;;;5077849;28;20047;-77
2021/06/07 11:43:48;;;;;;;9.85;8.05;;;28.10;69.60;;;;;;5076612;28;20122;-77
2021/06/07 11:46:32;;;;;;;9.35;6.55;;;28.20;67.90;;;;;;5077141;28;20040;-77
2021/06/07 11:49:14;;;;;;;9.38;8.27;;;28.40;67.50;;;;;;5076605;28;20452;-77
2021/06/07 11:51:42;;;;;;;10.25;8.15;;;28.40;66.90;;;;;;5110312;28;20041;-77
2021/06/07 11:54:26;;;;;;;8.85;7.93;;;28.30;66.60;;;;;;5071328;28;20319;-76
2021/06/07 11:57:00;;;;;;;10.35;8.60;;;28.20;68.70;;;;;;5067211;28;20037;-80
2021/06/07 11:59:28;;;;;;;10.32;8.20;;;28.10;68.30;;;;;;5074619;28;20066;-78
2021/06/07 12:01:54;;;;;;;11.38;8.85;;;28.00;70.00;;;;;;5076037;28;20043;-79
2021/06/07 12:04:31;;;;;;;11.57;9.77;;;27.90;69.10;;;;;;5074723;28;20322;-77
2021/06/07 12:07:04;;;;;;;13.05;9.43;;;27.70;68.50;;;;;;5073180;28;20120;-78
2021/06/07 12:09:30;;;;;;;14.45;10.70;;;27.60;69.30;;;;;;5076192;28;20044;-78
2021/06/07 12:11:56;;;;;;;11.15;9.57;;;27.50;70.20;;;;;;5076770;28;20044;-78
2021/06/07 12:14:30;;;;;;;14.23;10.32;;;27.40;72.00;;;;;;5075528;28;20043;-78
2021/06/07 12:17:09;;;;;;;14.07;11.02;;;27.30;71.40;;;;;;5076643;28;20063;-76
2021/06/07 12:19:39;;;;;;;13.48;11.02;;;27.20;71.20;;;;;;5076081;28;20419;-76
2021/06/07 12:22:05;;;;;;;12.85;10.55;;;27.00;72.40;;;;;;5075615;28;20028;-77
2021/06/07 12:24:32;;;;;;;11.38;9.38;;;26.90;74.00;;;;;;5075782;28;20078;-77
2021/06/07 12:29:47;;;;;;;15.45;10.45;;;26.70;72.80;;;;;;5068908;28;20050;-77
2021/06/07 12:32:23;;;;;;;13.63;10.02;;;26.70;74.30;;;;;;5076193;28;20093;-78
2021/06/07 12:35:07;;;;;;;14.68;9.73;;;26.70;71.80;;;;;;5056036;28;20640;-78